createdAt,value
2017-12-04T00:00:16.926Z,1017.73
2017-12-04T00:00:43.046Z,1017.67
2017-12-04T00:01:09.172Z,1017.72
2017-12-04T00:01:35.286Z,1017.67
2017-12-04T00:02:01.410Z,1017.7
2017-12-04T00:02:27.526Z,1017.65
2017-12-04T00:02:53.648Z,1017.65
2017-12-04T00:03:19.770Z,1017.63
2017-12-04T00:03:45.890Z,1017.64
2017-12-04T00:04:12.033Z,1017.62
2017-12-04T00:04:38.153Z,1017.58
2017-12-04T00:05:04.299Z,1017.56
2017-12-04T00:05:30.414Z,1017.57
2017-12-04T00:05:56.538Z,1017.59
2017-12-04T00:06:22.655Z,1017.59
2017-12-04T00:06:48.779Z,1017.57
2017-12-04T00:07:14.895Z,1017.59
2017-12-04T00:07:41.016Z,1017.56
2017-12-04T00:08:07.141Z,1017.57
2017-12-04T00:08:33.278Z,1017.55
2017-12-04T00:08:59.396Z,1017.54
2017-12-04T00:09:25.522Z,1017.59
2017-12-04T00:09:51.644Z,1017.56
2017-12-04T00:10:17.764Z,1017.52
2017-12-04T00:10:43.885Z,1017.57
2017-12-04T00:11:10.001Z,1017.58
2017-12-04T00:11:36.125Z,1017.57
2017-12-04T00:12:02.242Z,1017.62
2017-12-04T00:12:28.359Z,1017.62
2017-12-04T00:12:54.485Z,1017.61
2017-12-04T00:13:20.622Z,1017.61
2017-12-04T00:13:46.764Z,1017.61
2017-12-04T00:14:12.885Z,1017.66
2017-12-04T00:14:39.006Z,1017.63
2017-12-04T00:15:05.130Z,1017.67
2017-12-04T00:15:31.257Z,1017.63
2017-12-04T00:15:57.377Z,1017.64
2017-12-04T00:16:23.501Z,1017.66
2017-12-04T00:16:49.615Z,1017.67
2017-12-04T00:17:15.740Z,1017.65
2017-12-04T00:17:41.881Z,1017.7
2017-12-04T00:18:07.995Z,1017.71
2017-12-04T00:18:34.122Z,1017.71
2017-12-04T00:19:00.239Z,1017.75
2017-12-04T00:19:26.364Z,1017.74
2017-12-04T00:19:52.526Z,1017.75
2017-12-04T00:20:18.643Z,1017.75
2017-12-04T00:20:44.763Z,1017.76
2017-12-04T00:21:10.895Z,1017.73
2017-12-04T00:21:37.010Z,1017.77
2017-12-04T00:22:03.129Z,1017.83
2017-12-04T00:22:29.246Z,1017.8
2017-12-04T00:22:55.371Z,1017.79
2017-12-04T00:23:21.485Z,1017.79
2017-12-04T00:23:47.604Z,1017.78
2017-12-04T00:24:13.726Z,1017.76
2017-12-04T00:24:39.846Z,1017.76
2017-12-04T00:25:05.973Z,1017.75
2017-12-04T00:25:32.093Z,1017.75
2017-12-04T00:25:58.227Z,1017.77
2017-12-04T00:26:24.351Z,1017.77
2017-12-04T00:26:50.465Z,1017.8
2017-12-04T00:27:16.584Z,1017.83
2017-12-04T00:27:42.710Z,1017.79
2017-12-04T00:28:08.827Z,1017.75
2017-12-04T00:28:34.954Z,1017.75
2017-12-04T00:29:01.069Z,1017.81
2017-12-04T00:29:27.195Z,1017.78
2017-12-04T00:29:53.340Z,1017.8
2017-12-04T00:30:19.456Z,1017.81
2017-12-04T00:30:45.581Z,1017.81
2017-12-04T00:31:11.698Z,1017.77
2017-12-04T00:31:37.815Z,1017.79
2017-12-04T00:32:03.939Z,1017.81
2017-12-04T00:32:30.064Z,1017.8
2017-12-04T00:32:56.181Z,1017.76
2017-12-04T00:33:22.887Z,1017.74
2017-12-04T00:33:49.012Z,1017.78
2017-12-04T00:34:15.127Z,1017.77
2017-12-04T00:34:41.252Z,1017.78
2017-12-04T00:35:07.380Z,1017.79
2017-12-04T00:35:33.547Z,1017.81
2017-12-04T00:35:59.665Z,1017.79
2017-12-04T00:36:25.782Z,1017.8
2017-12-04T00:36:51.904Z,1017.8
2017-12-04T00:37:18.021Z,1017.8
2017-12-04T00:37:44.146Z,1017.82
2017-12-04T00:38:10.264Z,1017.81
2017-12-04T00:38:36.388Z,1017.77
2017-12-04T00:39:02.535Z,1017.78
2017-12-04T00:39:28.678Z,1017.79
2017-12-04T00:39:54.799Z,1017.78
2017-12-04T00:40:20.939Z,1017.77
2017-12-04T00:40:47.061Z,1017.78
2017-12-04T00:41:13.179Z,1017.79
2017-12-04T00:41:39.307Z,1017.69
2017-12-04T00:42:05.420Z,1017.77
2017-12-04T00:42:31.541Z,1017.79
2017-12-04T00:42:57.662Z,1017.79
2017-12-04T00:43:23.778Z,1017.76
2017-12-04T00:43:49.901Z,1017.77
2017-12-04T00:44:16.017Z,1017.71
2017-12-04T00:44:42.140Z,1017.72
2017-12-04T00:45:08.262Z,1017.75
2017-12-04T00:45:34.376Z,1017.71
2017-12-04T00:46:00.498Z,1017.73
2017-12-04T00:46:26.624Z,1017.7
2017-12-04T00:46:52.741Z,1017.71
2017-12-04T00:47:18.858Z,1017.75
2017-12-04T00:47:44.983Z,1017.76
2017-12-04T00:48:11.104Z,1017.75
2017-12-04T00:48:37.225Z,1017.77
2017-12-04T00:49:03.347Z,1017.76
2017-12-04T00:49:29.463Z,1017.77
2017-12-04T00:49:55.591Z,1017.71
2017-12-04T00:50:21.706Z,1017.78
2017-12-04T00:50:47.831Z,1017.79
2017-12-04T00:51:13.945Z,1017.79
2017-12-04T00:51:40.090Z,1017.72
2017-12-04T00:52:06.206Z,1017.74
2017-12-04T00:52:32.322Z,1017.77
2017-12-04T00:52:58.448Z,1017.76
2017-12-04T00:53:24.563Z,1017.78
2017-12-04T00:53:50.687Z,1017.8
2017-12-04T00:54:16.809Z,1017.81
2017-12-04T00:54:42.924Z,1017.81
2017-12-04T00:55:09.049Z,1017.79
2017-12-04T00:55:35.165Z,1017.8
2017-12-04T00:56:01.285Z,1017.77
2017-12-04T00:56:27.413Z,1017.79
2017-12-04T00:56:53.533Z,1017.81
2017-12-04T00:57:19.669Z,1017.77
2017-12-04T00:57:45.785Z,1017.83
2017-12-04T00:58:11.913Z,1017.82
2017-12-04T00:58:38.029Z,1017.84
2017-12-04T00:59:04.151Z,1017.78
2017-12-04T00:59:30.283Z,1017.78
2017-12-04T00:59:56.419Z,1017.81
2017-12-04T01:00:22.537Z,1017.83
2017-12-04T01:00:48.655Z,1017.83
2017-12-04T01:01:14.797Z,1017.84
2017-12-04T01:01:40.924Z,1017.78
2017-12-04T01:02:07.043Z,1017.82
2017-12-04T01:02:33.166Z,1017.82
2017-12-04T01:02:59.291Z,1017.82
2017-12-04T01:03:25.407Z,1017.79
2017-12-04T01:03:51.532Z,1017.81
2017-12-04T01:04:17.647Z,1017.84
2017-12-04T01:04:43.778Z,1017.78
2017-12-04T01:05:09.898Z,1017.82
2017-12-04T01:05:38.247Z,1017.83
2017-12-04T01:06:04.369Z,1017.82
2017-12-04T01:06:30.493Z,1017.85
2017-12-04T01:06:56.627Z,1017.84
2017-12-04T01:07:22.754Z,1017.84
2017-12-04T01:07:48.872Z,1017.85
2017-12-04T01:08:14.992Z,1017.83
2017-12-04T01:08:41.119Z,1017.81
2017-12-04T01:09:07.238Z,1017.79
2017-12-04T01:09:33.353Z,1017.76
2017-12-04T01:09:59.479Z,1017.74
2017-12-04T01:10:25.599Z,1017.74
2017-12-04T01:10:51.741Z,1017.78
2017-12-04T01:11:17.886Z,1017.76
2017-12-04T01:11:44.001Z,1017.77
2017-12-04T01:12:10.126Z,1017.76
2017-12-04T01:12:36.246Z,1017.8
2017-12-04T01:13:02.368Z,1017.77
2017-12-04T01:13:28.484Z,1017.81
2017-12-04T01:13:54.608Z,1017.84
2017-12-04T01:14:20.728Z,1017.84
2017-12-04T01:14:46.842Z,1017.84
2017-12-04T01:15:12.968Z,1017.84
2017-12-04T01:15:39.088Z,1017.87
2017-12-04T01:16:05.225Z,1017.91
2017-12-04T01:16:31.353Z,1017.91
2017-12-04T01:16:57.476Z,1017.91
2017-12-04T01:17:23.596Z,1017.93
2017-12-04T01:17:49.718Z,1017.96
2017-12-04T01:18:15.833Z,1018
2017-12-04T01:18:41.951Z,1017.95
2017-12-04T01:19:08.077Z,1017.98
2017-12-04T01:19:34.196Z,1017.95
2017-12-04T01:20:00.319Z,1017.98
2017-12-04T01:20:26.459Z,1017.99
2017-12-04T01:20:52.579Z,1018.03
2017-12-04T01:21:18.698Z,1018.02
2017-12-04T01:21:44.844Z,1017.99
2017-12-04T01:22:10.964Z,1017.97
2017-12-04T01:22:37.076Z,1018.02
2017-12-04T01:23:03.201Z,1018.02
2017-12-04T01:23:29.319Z,1018.02
2017-12-04T01:23:55.443Z,1018.02
2017-12-04T01:24:21.562Z,1018.03
2017-12-04T01:24:47.691Z,1018.02
2017-12-04T01:25:13.850Z,1018.06
2017-12-04T01:25:39.965Z,1018
2017-12-04T01:26:06.088Z,1017.99
2017-12-04T01:26:32.205Z,1017.98
2017-12-04T01:26:58.323Z,1018.01
2017-12-04T01:27:24.452Z,1018.04
2017-12-04T01:27:50.585Z,1018.01
2017-12-04T01:28:16.704Z,1018
2017-12-04T01:28:42.825Z,1017.99
2017-12-04T01:29:08.943Z,1018.03
2017-12-04T01:29:35.072Z,1017.97
2017-12-04T01:30:01.189Z,1017.97
2017-12-04T01:30:27.316Z,1017.95
2017-12-04T01:30:53.441Z,1017.96
2017-12-04T01:31:19.559Z,1017.94
2017-12-04T01:31:45.683Z,1017.9
2017-12-04T01:32:11.797Z,1017.93
2017-12-04T01:32:37.916Z,1017.89
2017-12-04T01:33:04.042Z,1017.91
2017-12-04T01:33:30.157Z,1017.9
2017-12-04T01:33:56.279Z,1017.92
2017-12-04T01:34:22.408Z,1017.91
2017-12-04T01:34:48.525Z,1017.94
2017-12-04T01:35:14.650Z,1017.96
2017-12-04T01:35:40.765Z,1017.9
2017-12-04T01:36:06.890Z,1017.93
2017-12-04T01:36:33.024Z,1017.93
2017-12-04T01:36:59.143Z,1017.96
2017-12-04T01:37:25.265Z,1017.98
2017-12-04T01:37:51.384Z,1018
2017-12-04T01:38:17.514Z,1018.02
2017-12-04T01:38:43.653Z,1018.06
2017-12-04T01:39:09.797Z,1018.09
2017-12-04T01:39:35.912Z,1018.09
2017-12-04T01:40:02.060Z,1018.1
2017-12-04T01:40:28.180Z,1018.1
2017-12-04T01:40:54.299Z,1018.13
2017-12-04T01:41:20.421Z,1018.22
2017-12-04T01:41:46.561Z,1018.19
2017-12-04T01:42:12.675Z,1018.22
2017-12-04T01:42:38.796Z,1018.26
2017-12-04T01:43:04.923Z,1018.21
2017-12-04T01:43:31.037Z,1018.25
2017-12-04T01:43:57.175Z,1018.24
2017-12-04T01:44:23.317Z,1018.28
2017-12-04T01:44:49.442Z,1018.26
2017-12-04T01:45:15.557Z,1018.27
2017-12-04T01:45:41.677Z,1018.27
2017-12-04T01:46:07.802Z,1018.27
2017-12-04T01:46:33.923Z,1018.27
2017-12-04T01:47:00.037Z,1018.26
2017-12-04T01:47:26.157Z,1018.27
2017-12-04T01:47:52.280Z,1018.25
2017-12-04T01:48:18.408Z,1018.22
2017-12-04T01:48:44.537Z,1018.24
2017-12-04T01:49:10.662Z,1018.23
2017-12-04T01:49:36.792Z,1018.22
2017-12-04T01:50:02.908Z,1018.22
2017-12-04T01:50:29.036Z,1018.24
2017-12-04T01:50:55.148Z,1018.19
2017-12-04T01:51:21.273Z,1018.2
2017-12-04T01:51:47.399Z,1018.19
2017-12-04T01:52:13.539Z,1018.16
2017-12-04T01:52:39.665Z,1018.17
2017-12-04T01:53:05.797Z,1018.18
2017-12-04T01:53:31.914Z,1018.13
2017-12-04T01:53:58.036Z,1018.16
2017-12-04T01:54:24.152Z,1018.14
2017-12-04T01:54:50.282Z,1018.18
2017-12-04T01:55:16.405Z,1018.18
2017-12-04T01:55:42.524Z,1018.1
2017-12-04T01:56:08.637Z,1018.14
2017-12-04T01:56:34.759Z,1018.16
2017-12-04T01:57:00.885Z,1018.11
2017-12-04T01:57:27.003Z,1018.11
2017-12-04T01:57:53.128Z,1018.14
2017-12-04T01:58:19.267Z,1018.13
2017-12-04T01:58:45.392Z,1018.15
2017-12-04T01:59:11.507Z,1018.11
2017-12-04T01:59:37.619Z,1018.18
2017-12-04T02:00:03.745Z,1018.17
2017-12-04T02:00:29.870Z,1018.21
2017-12-04T02:00:55.990Z,1018.2
2017-12-04T02:01:22.139Z,1018.16
2017-12-04T02:01:48.247Z,1018.21
2017-12-04T02:02:14.376Z,1018.19
2017-12-04T02:02:40.493Z,1018.2
2017-12-04T02:03:06.612Z,1018.2
2017-12-04T02:03:32.736Z,1018.18
2017-12-04T02:03:58.851Z,1018.17
2017-12-04T02:04:24.977Z,1018.21
2017-12-04T02:04:51.092Z,1018.16
2017-12-04T02:05:17.221Z,1018.17
2017-12-04T02:05:43.346Z,1018.15
2017-12-04T02:06:09.463Z,1018.21
2017-12-04T02:06:35.582Z,1018.14
2017-12-04T02:07:01.748Z,1018.12
2017-12-04T02:07:27.870Z,1018.14
2017-12-04T02:07:53.986Z,1018.17
2017-12-04T02:08:20.116Z,1018.15
2017-12-04T02:08:46.230Z,1018.14
2017-12-04T02:09:12.349Z,1018.15
2017-12-04T02:09:38.470Z,1018.19
2017-12-04T02:10:04.602Z,1018.17
2017-12-04T02:10:30.716Z,1018.2
2017-12-04T02:10:56.832Z,1018.19
2017-12-04T02:11:22.956Z,1018.19
2017-12-04T02:11:49.079Z,1018.19
2017-12-04T02:12:15.196Z,1018.17
2017-12-04T02:12:41.315Z,1018.18
2017-12-04T02:13:07.437Z,1018.16
2017-12-04T02:13:33.578Z,1018.16
2017-12-04T02:13:59.705Z,1018.15
2017-12-04T02:14:25.828Z,1018.11
2017-12-04T02:14:51.948Z,1018.11
2017-12-04T02:15:18.078Z,1018.11
2017-12-04T02:15:44.192Z,1018.11
2017-12-04T02:16:10.314Z,1018.13
2017-12-04T02:16:36.438Z,1018.09
2017-12-04T02:17:02.554Z,1018.05
2017-12-04T02:17:28.715Z,1018.07
2017-12-04T02:17:54.845Z,1018.07
2017-12-04T02:18:20.959Z,1018.04
2017-12-04T02:18:47.078Z,1018.01
2017-12-04T02:19:13.220Z,1018.06
2017-12-04T02:19:39.335Z,1018.04
2017-12-04T02:20:05.464Z,1018.07
2017-12-04T02:20:31.586Z,1018.09
2017-12-04T02:20:57.710Z,1018.14
2017-12-04T02:21:23.833Z,1018.08
2017-12-04T02:21:49.950Z,1018.12
2017-12-04T02:22:16.078Z,1018.09
2017-12-04T02:22:42.191Z,1018.11
2017-12-04T02:23:08.319Z,1018.11
2017-12-04T02:23:34.460Z,1018.09
2017-12-04T02:24:00.580Z,1018.16
2017-12-04T02:24:26.712Z,1018.17
2017-12-04T02:24:52.837Z,1018.15
2017-12-04T02:25:18.958Z,1018.17
2017-12-04T02:25:45.101Z,1018.16
2017-12-04T02:26:11.220Z,1018.16
2017-12-04T02:26:37.341Z,1018.15
2017-12-04T02:27:03.464Z,1018.16
2017-12-04T02:27:29.582Z,1018.15
2017-12-04T02:27:55.698Z,1018.16
2017-12-04T02:28:21.826Z,1018.16
2017-12-04T02:28:47.943Z,1018.12
2017-12-04T02:29:14.064Z,1018.13
2017-12-04T02:29:40.184Z,1018.13
2017-12-04T02:30:06.308Z,1018.18
2017-12-04T02:30:32.428Z,1018.15
2017-12-04T02:30:58.548Z,1018.14
2017-12-04T02:31:24.676Z,1018.17
2017-12-04T02:31:50.797Z,1018.14
2017-12-04T02:32:16.911Z,1018.16
2017-12-04T02:32:43.036Z,1018.15
2017-12-04T02:33:09.163Z,1018.13
2017-12-04T02:33:35.280Z,1018.1
2017-12-04T02:34:01.398Z,1018.14
2017-12-04T02:34:27.517Z,1018.13
2017-12-04T02:34:53.637Z,1018.12
2017-12-04T02:35:19.784Z,1018.14
2017-12-04T02:35:45.920Z,1018.13
2017-12-04T02:36:12.039Z,1018.13
2017-12-04T02:36:38.163Z,1018.11
2017-12-04T02:37:04.287Z,1018.14
2017-12-04T02:37:30.406Z,1018.13
2017-12-04T02:37:56.523Z,1018.19
2017-12-04T02:38:22.649Z,1018.19
2017-12-04T02:38:48.764Z,1018.2
2017-12-04T02:39:14.884Z,1018.17
2017-12-04T02:39:41.020Z,1018.16
2017-12-04T02:40:07.149Z,1018.19
2017-12-04T02:40:33.270Z,1018.18
2017-12-04T02:40:59.431Z,1018.16
2017-12-04T02:41:25.569Z,1018.21
2017-12-04T02:41:51.707Z,1018.17
2017-12-04T02:42:17.835Z,1018.18
2017-12-04T02:42:43.952Z,1018.16
2017-12-04T02:43:10.074Z,1018.24
2017-12-04T02:43:36.193Z,1018.17
2017-12-04T02:44:02.321Z,1018.16
2017-12-04T02:44:28.430Z,1018.18
2017-12-04T02:44:54.552Z,1018.18
2017-12-04T02:45:20.671Z,1018.11
2017-12-04T02:45:46.792Z,1018.11
2017-12-04T02:46:12.925Z,1018.07
2017-12-04T02:46:39.042Z,1018.07
2017-12-04T02:47:05.158Z,1018.08
2017-12-04T02:47:31.283Z,1018.1
2017-12-04T02:47:57.429Z,1018.09
2017-12-04T02:48:23.544Z,1018.09
2017-12-04T02:48:49.669Z,1018.07
2017-12-04T02:49:15.792Z,1018.05
2017-12-04T02:49:41.909Z,1018.03
2017-12-04T02:50:08.025Z,1018.03
2017-12-04T02:50:34.150Z,1018.03
2017-12-04T02:51:00.273Z,1018.01
2017-12-04T02:51:26.389Z,1018.01
2017-12-04T02:51:52.512Z,1018
2017-12-04T02:52:18.631Z,1018.06
2017-12-04T02:52:44.762Z,1018.03
2017-12-04T02:53:10.873Z,1017.96
2017-12-04T02:53:36.999Z,1018.01
2017-12-04T02:54:03.118Z,1018.02
2017-12-04T02:54:29.234Z,1018.01
2017-12-04T02:54:55.361Z,1018.05
2017-12-04T02:55:21.476Z,1018.03
2017-12-04T02:55:47.624Z,1018.06
2017-12-04T02:56:13.742Z,1018.08
2017-12-04T02:56:39.870Z,1018.06
2017-12-04T02:57:05.988Z,1018.09
2017-12-04T02:57:32.110Z,1018.11
2017-12-04T02:57:58.236Z,1018.12
2017-12-04T02:58:24.350Z,1018.11
2017-12-04T02:58:50.475Z,1018.13
2017-12-04T02:59:16.598Z,1018.11
2017-12-04T02:59:42.719Z,1018.07
2017-12-04T03:00:08.847Z,1018.1
2017-12-04T03:00:34.962Z,1018.09
2017-12-04T03:01:01.087Z,1018.07
2017-12-04T03:01:27.205Z,1018.08
2017-12-04T03:01:53.321Z,1018.14
2017-12-04T03:02:19.443Z,1018.14
2017-12-04T03:02:45.562Z,1018.1
2017-12-04T03:03:11.683Z,1018.13
2017-12-04T03:03:37.807Z,1018.09
2017-12-04T03:04:03.930Z,1018.15
2017-12-04T03:04:30.063Z,1018.05
2017-12-04T03:04:56.203Z,1018.08
2017-12-04T03:05:22.332Z,1018.08
2017-12-04T03:05:48.461Z,1018.07
2017-12-04T03:06:14.578Z,1018.1
2017-12-04T03:06:40.727Z,1018.15
2017-12-04T03:07:06.866Z,1018.11
2017-12-04T03:07:32.991Z,1018.14
2017-12-04T03:07:59.105Z,1018.09
2017-12-04T03:08:25.235Z,1018.1
2017-12-04T03:08:51.350Z,1018.13
2017-12-04T03:09:17.468Z,1018.06
2017-12-04T03:09:43.585Z,1018.09
2017-12-04T03:10:09.708Z,1018.06
2017-12-04T03:10:35.822Z,1018.13
2017-12-04T03:11:01.942Z,1018.11
2017-12-04T03:11:28.082Z,1018.13
2017-12-04T03:11:54.207Z,1018.1
2017-12-04T03:12:20.335Z,1018.06
2017-12-04T03:12:46.449Z,1018.08
2017-12-04T03:13:12.568Z,1018.07
2017-12-04T03:13:38.682Z,1018.02
2017-12-04T03:14:04.812Z,1018.04
2017-12-04T03:14:30.929Z,1018
2017-12-04T03:14:57.054Z,1018.07
2017-12-04T03:15:23.185Z,1018.07
2017-12-04T03:15:49.291Z,1018
2017-12-04T03:16:15.417Z,1018
2017-12-04T03:16:41.532Z,1018.04
2017-12-04T03:17:07.659Z,1018.03
2017-12-04T03:17:33.798Z,1018.08
2017-12-04T03:17:59.918Z,1018.05
2017-12-04T03:18:26.045Z,1018.06
2017-12-04T03:18:52.166Z,1018.11
2017-12-04T03:19:18.281Z,1018.08
2017-12-04T03:19:44.402Z,1018.09
2017-12-04T03:20:10.527Z,1018.09
2017-12-04T03:20:36.663Z,1018.05
2017-12-04T03:21:02.785Z,1018.11
2017-12-04T03:21:28.909Z,1018.05
2017-12-04T03:21:55.029Z,1018.08
2017-12-04T03:22:21.147Z,1018.07
2017-12-04T03:22:47.269Z,1018.05
2017-12-04T03:23:13.397Z,1018.1
2017-12-04T03:23:39.531Z,1018.07
2017-12-04T03:24:05.648Z,1018.04
2017-12-04T03:24:31.773Z,1018.04
2017-12-04T03:24:57.896Z,1018.07
2017-12-04T03:25:24.041Z,1018.04
2017-12-04T03:25:50.160Z,1018.06
2017-12-04T03:26:16.281Z,1018.06
2017-12-04T03:26:42.403Z,1018.02
2017-12-04T03:27:08.521Z,1018.01
2017-12-04T03:27:34.663Z,1018
2017-12-04T03:28:00.777Z,1018
2017-12-04T03:28:26.902Z,1018.01
2017-12-04T03:28:53.022Z,1018.08
2017-12-04T03:29:19.162Z,1018.06
2017-12-04T03:29:45.302Z,1018.01
2017-12-04T03:30:11.420Z,1018.04
2017-12-04T03:30:37.541Z,1018.04
2017-12-04T03:31:03.666Z,1018.02
2017-12-04T03:31:29.793Z,1018.07
2017-12-04T03:31:55.923Z,1018.09
2017-12-04T03:32:22.054Z,1018.03
2017-12-04T03:32:48.178Z,1018.09
2017-12-04T03:33:14.294Z,1018.08
2017-12-04T03:33:40.411Z,1018.06
2017-12-04T03:34:06.536Z,1018.06
2017-12-04T03:34:32.654Z,1018.05
2017-12-04T03:34:58.778Z,1018.01
2017-12-04T03:35:24.902Z,1018
2017-12-04T03:35:51.019Z,1017.99
2017-12-04T03:36:17.162Z,1017.98
2017-12-04T03:36:43.280Z,1017.99
2017-12-04T03:37:09.420Z,1017.97
2017-12-04T03:37:35.545Z,1018.01
2017-12-04T03:38:01.669Z,1018.05
2017-12-04T03:38:27.785Z,1018.04
2017-12-04T03:38:53.901Z,1018.02
2017-12-04T03:39:20.025Z,1018.06
2017-12-04T03:39:46.144Z,1018.02
2017-12-04T03:40:12.266Z,1018.06
2017-12-04T03:40:38.386Z,1018.05
2017-12-04T03:41:04.507Z,1018.02
2017-12-04T03:41:30.633Z,1018.05
2017-12-04T03:41:56.749Z,1018.08
2017-12-04T03:42:22.867Z,1018.07
2017-12-04T03:42:48.992Z,1018.08
2017-12-04T03:43:15.112Z,1018.06
2017-12-04T03:43:41.237Z,1018.11
2017-12-04T03:44:07.357Z,1018.07
2017-12-04T03:44:33.492Z,1018.08
2017-12-04T03:44:59.614Z,1018.04
2017-12-04T03:45:25.740Z,1018.03
2017-12-04T03:45:51.862Z,1018.06
2017-12-04T03:46:17.985Z,1018.08
2017-12-04T03:46:44.111Z,1018.07
2017-12-04T03:47:10.224Z,1018.07
2017-12-04T03:47:36.348Z,1018.06
2017-12-04T03:48:02.464Z,1018.09
2017-12-04T03:48:28.577Z,1018.06
2017-12-04T03:48:54.708Z,1018.1
2017-12-04T03:49:20.831Z,1018.09
2017-12-04T03:49:46.947Z,1018.04
2017-12-04T03:50:13.076Z,1018.09
2017-12-04T03:50:39.201Z,1018.09
2017-12-04T03:51:05.318Z,1018.06
2017-12-04T03:51:31.453Z,1018.12
2017-12-04T03:51:57.578Z,1018.1
2017-12-04T03:52:23.695Z,1018.07
2017-12-04T03:52:49.816Z,1018.08
2017-12-04T03:53:15.957Z,1018.07
2017-12-04T03:53:42.074Z,1018.08
2017-12-04T03:54:08.202Z,1018.06
2017-12-04T03:54:34.324Z,1018.06
2017-12-04T03:55:00.449Z,1018.1
2017-12-04T03:55:26.575Z,1018.11
2017-12-04T03:55:52.684Z,1018.09
2017-12-04T03:56:18.834Z,1018.07
2017-12-04T03:56:44.955Z,1018.09
2017-12-04T03:57:11.094Z,1018.12
2017-12-04T03:57:37.213Z,1018.15
2017-12-04T03:58:03.331Z,1018.06
2017-12-04T03:58:29.478Z,1018.09
2017-12-04T03:58:55.601Z,1018.11
2017-12-04T03:59:21.717Z,1018.12
2017-12-04T03:59:47.840Z,1018.1
2017-12-04T04:00:13.959Z,1018.1
2017-12-04T04:00:40.084Z,1018.16
2017-12-04T04:01:06.201Z,1018.18
2017-12-04T04:01:32.320Z,1018.17
2017-12-04T04:01:58.445Z,1018.16
2017-12-04T04:02:24.569Z,1018.17
2017-12-04T04:02:50.705Z,1018.18
2017-12-04T04:03:16.825Z,1018.14
2017-12-04T04:03:42.952Z,1018.18
2017-12-04T04:04:09.071Z,1018.16
2017-12-04T04:04:35.192Z,1018.16
2017-12-04T04:05:01.310Z,1018.17
2017-12-04T04:05:27.435Z,1018.17
2017-12-04T04:05:53.558Z,1018.21
2017-12-04T04:06:19.674Z,1018.15
2017-12-04T04:06:45.803Z,1018.17
2017-12-04T04:07:11.919Z,1018.16
2017-12-04T04:07:38.043Z,1018.16
2017-12-04T04:08:04.161Z,1018.13
2017-12-04T04:08:30.275Z,1018.18
2017-12-04T04:08:56.429Z,1018.21
2017-12-04T04:09:22.543Z,1018.19
2017-12-04T04:09:48.669Z,1018.12
2017-12-04T04:10:14.783Z,1018.18
2017-12-04T04:10:40.907Z,1018.17
2017-12-04T04:11:07.023Z,1018.13
2017-12-04T04:11:33.141Z,1018.14
2017-12-04T04:11:59.284Z,1018.19
2017-12-04T04:12:25.398Z,1018.19
2017-12-04T04:12:51.523Z,1018.18
2017-12-04T04:13:17.639Z,1018.19
2017-12-04T04:13:43.765Z,1018.18
2017-12-04T04:14:09.881Z,1018.23
2017-12-04T04:14:36.008Z,1018.14
2017-12-04T04:15:02.129Z,1018.18
2017-12-04T04:15:28.250Z,1018.17
2017-12-04T04:15:54.376Z,1018.18
2017-12-04T04:16:20.491Z,1018.13
2017-12-04T04:16:46.616Z,1018.21
2017-12-04T04:17:12.733Z,1018.21
2017-12-04T04:17:38.857Z,1018.17
2017-12-04T04:18:04.981Z,1018.21
2017-12-04T04:18:31.099Z,1018.19
2017-12-04T04:18:57.215Z,1018.24
2017-12-04T04:19:23.344Z,1018.23
2017-12-04T04:19:49.486Z,1018.21
2017-12-04T04:20:15.602Z,1018.2
2017-12-04T04:20:41.728Z,1018.21
2017-12-04T04:21:07.850Z,1018.26
2017-12-04T04:21:33.970Z,1018.19
2017-12-04T04:22:00.086Z,1018.2
2017-12-04T04:22:26.211Z,1018.16
2017-12-04T04:22:52.331Z,1018.17
2017-12-04T04:23:18.482Z,1018.2
2017-12-04T04:23:44.597Z,1018.18
2017-12-04T04:24:10.722Z,1018.25
2017-12-04T04:24:36.842Z,1018.2
2017-12-04T04:25:02.957Z,1018.21
2017-12-04T04:25:29.120Z,1018.22
2017-12-04T04:25:55.215Z,1018.22
2017-12-04T04:26:21.322Z,1018.2
2017-12-04T04:26:47.442Z,1018.21
2017-12-04T04:27:13.566Z,1018.23
2017-12-04T04:27:39.700Z,1018.22
2017-12-04T04:28:05.826Z,1018.22
2017-12-04T04:28:31.948Z,1018.21
2017-12-04T04:28:58.069Z,1018.25
2017-12-04T04:29:24.194Z,1018.22
2017-12-04T04:29:50.320Z,1018.22
2017-12-04T04:30:16.433Z,1018.23
2017-12-04T04:30:42.558Z,1018.21
2017-12-04T04:31:08.677Z,1018.23
2017-12-04T04:31:34.791Z,1018.22
2017-12-04T04:32:00.918Z,1018.22
2017-12-04T04:32:27.037Z,1018.2
2017-12-04T04:32:53.158Z,1018.22
2017-12-04T04:33:19.273Z,1018.21
2017-12-04T04:33:45.398Z,1018.23
2017-12-04T04:34:11.519Z,1018.2
2017-12-04T04:34:37.645Z,1018.19
2017-12-04T04:35:03.764Z,1018.23
2017-12-04T04:35:29.876Z,1018.2
2017-12-04T04:35:56.003Z,1018.18
2017-12-04T04:36:22.126Z,1018.18
2017-12-04T04:36:48.242Z,1018.2
2017-12-04T04:37:14.369Z,1018.21
2017-12-04T04:37:40.484Z,1018.18
2017-12-04T04:38:06.608Z,1018.2
2017-12-04T04:38:32.746Z,1018.18
2017-12-04T04:38:58.868Z,1018.21
2017-12-04T04:39:24.994Z,1018.18
2017-12-04T04:39:51.118Z,1018.14
2017-12-04T04:40:17.236Z,1018.14
2017-12-04T04:40:43.356Z,1018.16
2017-12-04T04:41:09.471Z,1018.13
2017-12-04T04:41:35.590Z,1018.19
2017-12-04T04:42:01.709Z,1018.16
2017-12-04T04:42:27.834Z,1018.15
2017-12-04T04:42:53.954Z,1018.16
2017-12-04T04:43:20.081Z,1018.23
2017-12-04T04:43:46.198Z,1018.23
2017-12-04T04:44:12.340Z,1018.2
2017-12-04T04:44:38.464Z,1018.22
2017-12-04T04:45:04.610Z,1018.22
2017-12-04T04:45:30.732Z,1018.27
2017-12-04T04:45:56.870Z,1018.22
2017-12-04T04:46:22.985Z,1018.25
2017-12-04T04:46:49.104Z,1018.23
2017-12-04T04:47:15.223Z,1018.15
2017-12-04T04:47:41.374Z,1018.13
2017-12-04T04:48:07.488Z,1018.14
2017-12-04T04:48:33.605Z,1018.11
2017-12-04T04:48:59.737Z,1018.12
2017-12-04T04:49:25.859Z,1018.16
2017-12-04T04:49:51.981Z,1018.18
2017-12-04T04:50:18.098Z,1018.22
2017-12-04T04:50:44.215Z,1018.22
2017-12-04T04:51:10.338Z,1018.23
2017-12-04T04:51:36.457Z,1018.27
2017-12-04T04:52:02.576Z,1018.22
2017-12-04T04:52:28.701Z,1018.27
2017-12-04T04:52:54.815Z,1018.26
2017-12-04T04:53:20.940Z,1018.23
2017-12-04T04:53:47.062Z,1018.26
2017-12-04T04:54:13.182Z,1018.25
2017-12-04T04:54:39.308Z,1018.25
2017-12-04T04:55:05.425Z,1018.26
2017-12-04T04:55:31.546Z,1018.26
2017-12-04T04:55:57.709Z,1018.26
2017-12-04T04:56:23.836Z,1018.25
2017-12-04T04:56:49.956Z,1018.26
2017-12-04T04:57:16.074Z,1018.24
2017-12-04T04:57:42.199Z,1018.3
2017-12-04T04:58:08.321Z,1018.25
2017-12-04T04:58:34.435Z,1018.32
2017-12-04T04:59:00.624Z,1018.33
2017-12-04T04:59:26.681Z,1018.31
2017-12-04T04:59:52.818Z,1018.3
2017-12-04T05:00:18.940Z,1018.27
2017-12-04T05:00:45.067Z,1018.25
2017-12-04T05:01:11.206Z,1018.28
2017-12-04T05:01:37.328Z,1018.29
2017-12-04T05:02:03.450Z,1018.25
2017-12-04T05:02:29.566Z,1018.27
2017-12-04T05:02:55.697Z,1018.29
2017-12-04T05:03:21.834Z,1018.29
2017-12-04T05:03:47.953Z,1018.28
2017-12-04T05:04:14.075Z,1018.27
2017-12-04T05:04:40.227Z,1018.3
2017-12-04T05:05:06.349Z,1018.27
2017-12-04T05:05:32.463Z,1018.27
2017-12-04T05:05:58.575Z,1018.27
2017-12-04T05:06:24.698Z,1018.29
2017-12-04T05:06:50.821Z,1018.23
2017-12-04T05:07:16.938Z,1018.28
2017-12-04T05:07:43.085Z,1018.27
2017-12-04T05:08:09.208Z,1018.33
2017-12-04T05:08:35.332Z,1018.28
2017-12-04T05:09:01.446Z,1018.31
2017-12-04T05:09:27.594Z,1018.28
2017-12-04T05:09:53.717Z,1018.25
2017-12-04T05:10:19.833Z,1018.23
2017-12-04T05:10:45.955Z,1018.26
2017-12-04T05:11:12.075Z,1018.23
2017-12-04T05:11:38.199Z,1018.28
2017-12-04T05:12:04.310Z,1018.25
2017-12-04T05:12:30.438Z,1018.29
2017-12-04T05:12:56.580Z,1018.24
2017-12-04T05:13:22.722Z,1018.26
2017-12-04T05:13:48.837Z,1018.28
2017-12-04T05:14:15.009Z,1018.29
2017-12-04T05:14:41.133Z,1018.28
2017-12-04T05:15:07.260Z,1018.28
2017-12-04T05:15:33.384Z,1018.32
2017-12-04T05:15:59.499Z,1018.3
2017-12-04T05:16:25.689Z,1018.32
2017-12-04T05:16:51.751Z,1018.31
2017-12-04T05:17:17.864Z,1018.39